createdAt,value
2018-12-26T00:02:09.185Z,47.50
2018-12-26T00:04:38.614Z,47.93
2018-12-26T00:07:08.975Z,44.93
2018-12-26T00:09:38.430Z,45.10
2018-12-26T00:12:07.602Z,48.23
2018-12-26T00:14:37.097Z,45.50
2018-12-26T00:17:06.541Z,44.77
2018-12-26T00:19:35.739Z,47.67
2018-12-26T00:22:05.665Z,37.57
2018-12-26T00:24:35.057Z,47.00
2018-12-26T00:27:04.209Z,39.77
2018-12-26T00:29:33.702Z,44.53
2018-12-26T00:32:03.158Z,41.90
2018-12-26T00:34:33.496Z,42.30
2018-12-26T00:37:02.790Z,39.30
2018-12-26T00:39:31.949Z,40.43
2018-12-26T00:42:01.181Z,35.37
2018-12-26T00:44:30.725Z,41.70
2018-12-26T00:47:01.873Z,36.33
2018-12-26T00:49:31.342Z,34.63
2018-12-26T00:52:02.519Z,38.63
2018-12-26T00:54:31.993Z,34.83
2018-12-26T00:57:01.158Z,31.80
2018-12-26T00:59:30.636Z,32.97
2018-12-26T01:02:00.098Z,33.20
2018-12-26T01:04:29.254Z,42.43
2018-12-26T01:06:59.107Z,38.30
2018-12-26T01:09:28.256Z,36.93
2018-12-26T01:11:58.622Z,43.07
2018-12-26T01:14:28.066Z,32.67
2018-12-26T01:16:58.357Z,37.17
2018-12-26T01:19:29.454Z,37.27
2018-12-26T01:21:59.000Z,49.23
2018-12-26T01:24:28.163Z,34.80
2018-12-26T01:26:57.319Z,36.93
2018-12-26T01:29:26.983Z,39.40
2018-12-26T01:31:57.432Z,36.27
2018-12-26T01:34:26.593Z,32.67
2018-12-26T01:36:56.092Z,39.23
2018-12-26T01:39:25.542Z,33.63
2018-12-26T01:41:55.939Z,34.53
2018-12-26T01:44:26.520Z,34.47
2018-12-26T01:46:55.738Z,33.73
2018-12-26T01:49:25.258Z,33.23
2018-12-26T01:51:54.761Z,38.87
2018-12-26T01:54:24.224Z,37.83
2018-12-26T01:56:53.374Z,36.30
2018-12-26T01:59:22.849Z,41.23
2018-12-26T02:01:52.381Z,39.90
2018-12-26T02:04:21.831Z,37.40
2018-12-26T02:06:51.076Z,32.20
2018-12-26T02:09:20.431Z,33.47
2018-12-26T02:11:51.598Z,36.37
2018-12-26T02:14:22.303Z,39.53
2018-12-26T02:16:51.459Z,37.63
2018-12-26T02:19:21.181Z,39.30
2018-12-26T02:21:50.452Z,35.57
2018-12-26T02:24:19.910Z,40.90
2018-12-26T02:26:49.067Z,37.50
2018-12-26T02:29:18.927Z,37.97
2018-12-26T02:31:49.246Z,41.37
2018-12-26T02:34:19.580Z,41.47
2018-12-26T02:36:50.319Z,44.57
2018-12-26T02:39:19.891Z,44.60
2018-12-26T02:41:51.371Z,42.70
2018-12-26T02:44:21.737Z,44.40
2018-12-26T02:46:51.671Z,47.57
2018-12-26T02:49:21.123Z,45.03
2018-12-26T02:51:51.844Z,46.47
2018-12-26T02:54:22.986Z,38.83
2018-12-26T02:56:53.319Z,39.07
2018-12-26T02:59:22.832Z,46.20
2018-12-26T03:01:51.978Z,37.50
2018-12-26T03:04:21.452Z,38.80
2018-12-26T03:06:51.354Z,39.30
2018-12-26T03:09:20.505Z,42.40
2018-12-26T03:11:49.938Z,40.10
2018-12-26T03:14:20.677Z,41.97
2018-12-26T03:16:50.175Z,41.53
2018-12-26T03:19:19.686Z,38.80
2018-12-26T03:21:48.875Z,49.20
2018-12-26T03:24:18.288Z,41.13
2018-12-26T03:26:56.195Z,43.60
2018-12-26T03:29:20.188Z,42.70
2018-12-26T03:31:49.759Z,36.40
2018-12-26T03:34:19.987Z,43.90
2018-12-26T03:36:50.431Z,42.93
2018-12-26T03:39:20.378Z,42.07
2018-12-26T03:41:49.744Z,40.97
2018-12-26T03:44:19.077Z,46.43
2018-12-26T03:46:49.119Z,44.27
2018-12-26T03:49:18.409Z,41.73
2018-12-26T03:51:48.177Z,36.80
2018-12-26T03:54:17.711Z,33.00
2018-12-26T03:56:48.874Z,32.23
2018-12-26T03:59:18.740Z,37.37
2018-12-26T04:01:51.165Z,27.77
2018-12-26T04:04:20.614Z,31.60
2018-12-26T04:06:50.294Z,35.90
2018-12-26T04:09:19.696Z,36.83
2018-12-26T04:11:49.181Z,44.27
2018-12-26T04:14:18.959Z,29.33
2018-12-26T04:16:48.208Z,31.57
2018-12-26T04:19:19.324Z,28.57
2018-12-26T04:21:49.198Z,31.10
2018-12-26T04:24:19.529Z,32.20
2018-12-26T04:26:49.029Z,34.03
2018-12-26T04:29:18.530Z,29.50
2018-12-26T04:31:47.686Z,28.17
2018-12-26T04:34:17.149Z,24.27
2018-12-26T04:36:46.676Z,30.83
2018-12-26T04:39:16.220Z,29.20
2018-12-26T04:41:46.479Z,31.20
2018-12-26T04:44:18.024Z,26.00
2018-12-26T04:46:47.173Z,22.87
2018-12-26T04:49:16.642Z,23.50
2018-12-26T04:51:47.187Z,28.97
2018-12-26T04:54:16.446Z,24.43
2018-12-26T04:56:45.995Z,28.10
2018-12-26T04:59:15.520Z,21.97
2018-12-26T05:01:44.985Z,27.63
2018-12-26T05:04:14.475Z,25.40
2018-12-26T05:06:43.985Z,23.13
2018-12-26T05:09:13.203Z,30.53
2018-12-26T05:11:42.659Z,25.83
2018-12-26T05:14:13.006Z,35.37
2018-12-26T05:16:42.469Z,25.37
2018-12-26T05:19:11.983Z,23.73
2018-12-26T05:21:41.821Z,24.00
2018-12-26T05:24:11.052Z,21.60
2018-12-26T05:26:40.503Z,27.13
2018-12-26T05:29:10.772Z,22.83
2018-12-26T05:31:40.253Z,32.20
2018-12-26T05:34:15.611Z,23.73
2018-12-26T05:36:45.007Z,24.27
2018-12-26T05:39:14.243Z,22.97
2018-12-26T05:41:44.013Z,24.27
2018-12-26T05:44:15.163Z,23.47
2018-12-26T05:46:44.691Z,18.50
2018-12-26T05:49:14.574Z,21.40
2018-12-26T05:51:43.768Z,16.90
2018-12-26T05:54:13.183Z,25.97
2018-12-26T05:56:42.595Z,18.40
2018-12-26T05:59:13.046Z,20.37
2018-12-26T06:01:42.514Z,24.47
2018-12-26T06:04:12.903Z,21.03
2018-12-26T06:06:42.352Z,26.27
2018-12-26T06:09:11.513Z,24.13
2018-12-26T06:11:41.008Z,33.87
2018-12-26T06:14:10.445Z,21.80
2018-12-26T06:16:40.780Z,24.63
2018-12-26T06:19:10.289Z,20.87
2018-12-26T06:21:39.441Z,24.37
2018-12-26T06:24:08.883Z,19.07
2018-12-26T06:26:38.082Z,26.13
2018-12-26T06:29:07.481Z,22.40
2018-12-26T06:31:36.642Z,27.00
2018-12-26T06:34:06.488Z,21.53
2018-12-26T06:36:36.003Z,16.20
2018-12-26T06:39:07.453Z,22.47
2018-12-26T06:41:36.715Z,23.83
2018-12-26T06:44:06.155Z,22.90
2018-12-26T06:46:35.316Z,21.23
2018-12-26T06:49:05.145Z,20.10
2018-12-26T06:51:35.482Z,21.40
2018-12-26T06:54:04.711Z,14.53
2018-12-26T06:56:34.147Z,26.03
2018-12-26T06:59:03.595Z,27.50
2018-12-26T07:01:32.752Z,20.73
2018-12-26T07:04:02.612Z,19.23
2018-12-26T07:06:31.753Z,20.67
2018-12-26T07:09:01.213Z,28.10
2018-12-26T07:11:30.755Z,20.87
2018-12-26T07:14:00.218Z,22.20
2018-12-26T07:16:29.370Z,29.90
2018-12-26T07:18:59.234Z,26.30
2018-12-26T07:21:28.381Z,29.30
2018-12-26T07:23:57.818Z,29.87
2018-12-26T07:26:27.005Z,24.87
2018-12-26T07:28:56.436Z,31.53
2018-12-26T07:31:25.933Z,22.63
2018-12-26T07:33:55.140Z,29.33
2018-12-26T07:36:24.537Z,30.17
2018-12-26T07:38:53.691Z,22.80
2018-12-26T07:41:23.542Z,21.17
2018-12-26T07:43:52.807Z,30.67
2018-12-26T07:46:26.238Z,30.17
2018-12-26T07:48:55.432Z,28.17
2018-12-26T07:51:24.851Z,26.73
2018-12-26T07:53:55.171Z,32.77
2018-12-26T07:56:24.371Z,26.13
2018-12-26T07:58:53.764Z,28.43
2018-12-26T08:01:24.104Z,34.33
2018-12-26T08:03:53.685Z,31.80
2018-12-26T08:06:23.111Z,29.40
2018-12-26T08:08:52.258Z,32.27
2018-12-26T08:11:21.971Z,23.10
2018-12-26T08:13:51.273Z,24.53
2018-12-26T08:16:20.720Z,30.20
2018-12-26T08:18:50.327Z,30.07
2018-12-26T08:21:19.739Z,24.57
2018-12-26T08:23:48.900Z,22.13
2018-12-26T08:26:18.561Z,24.53
2018-12-26T08:28:47.859Z,29.23
2018-12-26T08:31:18.158Z,29.87
2018-12-26T08:33:47.460Z,28.57
2018-12-26T08:36:17.580Z,24.47
2018-12-26T08:38:47.145Z,19.00
2018-12-26T08:41:18.552Z,22.80
2018-12-26T08:43:47.740Z,24.73
2018-12-26T08:46:17.238Z,28.80
2018-12-26T08:48:47.616Z,29.37
2018-12-26T08:51:17.075Z,31.10
2018-12-26T08:53:46.217Z,29.27
2018-12-26T08:56:15.786Z,25.70
2018-12-26T08:58:45.165Z,25.17
2018-12-26T09:01:14.319Z,29.67
2018-12-26T09:03:43.814Z,23.90
2018-12-26T09:06:13.386Z,20.17
2018-12-26T09:08:42.783Z,31.53
2018-12-26T09:11:17.242Z,22.07
2018-12-26T09:13:46.705Z,31.97
2018-12-26T09:16:17.857Z,17.73
2018-12-26T09:18:47.047Z,20.13
2018-12-26T09:21:16.471Z,19.10
2018-12-26T09:23:47.258Z,29.90
2018-12-26T09:26:16.734Z,25.20
2018-12-26T09:28:46.198Z,20.83
2018-12-26T09:31:15.346Z,24.10
2018-12-26T09:33:44.808Z,18.13
2018-12-26T09:36:14.046Z,23.17
2018-12-26T09:38:43.402Z,32.73
2018-12-26T09:41:13.762Z,26.10
2018-12-26T09:43:43.233Z,27.63
2018-12-26T09:46:13.563Z,23.87
2018-12-26T09:48:43.094Z,23.23
2018-12-26T09:51:12.646Z,23.50
2018-12-26T09:53:42.075Z,26.53
2018-12-26T09:56:11.265Z,24.17
2018-12-26T09:58:40.675Z,28.63
2018-12-26T10:01:13.092Z,24.87
2018-12-26T10:03:42.594Z,30.07
2018-12-26T10:06:12.077Z,23.70
2018-12-26T10:08:41.303Z,22.03
2018-12-26T10:11:11.528Z,26.17
2018-12-26T10:13:41.009Z,23.93
2018-12-26T10:16:10.491Z,24.53
2018-12-26T10:18:39.691Z,18.50
2018-12-26T10:21:09.103Z,25.90
2018-12-26T10:23:39.417Z,25.10
2018-12-26T10:26:08.603Z,26.13
2018-12-26T10:28:38.013Z,24.43
2018-12-26T10:31:09.438Z,26.73
2018-12-26T10:33:39.115Z,20.20
2018-12-26T10:36:08.581Z,23.07
2018-12-26T10:38:37.736Z,16.80
2018-12-26T10:41:11.290Z,17.47
2018-12-26T10:43:41.595Z,23.73
2018-12-26T10:46:10.747Z,16.70
2018-12-26T10:48:40.609Z,22.53
2018-12-26T10:51:10.943Z,23.17
2018-12-26T10:53:40.090Z,25.00
2018-12-26T10:56:09.644Z,24.10
2018-12-26T10:58:39.113Z,25.27
2018-12-26T11:01:08.544Z,23.67
2018-12-26T11:03:38.909Z,23.70
2018-12-26T11:06:08.370Z,30.93
2018-12-26T11:08:37.518Z,25.40
2018-12-26T11:11:07.045Z,22.97
2018-12-26T11:13:36.490Z,23.77
2018-12-26T11:16:07.469Z,24.10
2018-12-26T11:18:36.758Z,20.60
2018-12-26T11:21:06.235Z,23.70
2018-12-26T11:23:41.883Z,20.73
2018-12-26T11:26:11.034Z,19.33
2018-12-26T11:28:40.542Z,27.50
2018-12-26T11:31:10.413Z,28.63
2018-12-26T11:33:39.893Z,32.60
2018-12-26T11:36:09.046Z,23.53
2018-12-26T11:38:42.991Z,21.40
2018-12-26T11:41:12.855Z,28.13
2018-12-26T11:43:42.019Z,21.20
2018-12-26T11:46:11.240Z,22.13
2018-12-26T11:48:40.623Z,22.17
2018-12-26T11:51:12.175Z,22.80
2018-12-26T11:53:41.367Z,23.10
2018-12-26T11:56:10.774Z,22.87
2018-12-26T11:58:39.994Z,23.20
2018-12-26T12:01:09.787Z,19.43
2018-12-26T12:03:38.941Z,28.83
2018-12-26T12:06:08.459Z,20.50
2018-12-26T12:08:38.004Z,20.80
2018-12-26T12:11:07.536Z,19.33
2018-12-26T12:13:36.952Z,23.00
2018-12-26T12:16:06.824Z,24.47
2018-12-26T12:18:36.111Z,21.80
2018-12-26T12:21:05.491Z,22.93
2018-12-26T12:23:34.958Z,20.17
2018-12-26T12:26:04.425Z,20.73
2018-12-26T12:28:33.577Z,21.93
2018-12-26T12:31:03.082Z,16.90
2018-12-26T12:33:32.539Z,15.90
2018-12-26T12:36:01.931Z,22.90
2018-12-26T12:38:31.307Z,21.17
2018-12-26T12:41:00.642Z,20.20
2018-12-26T12:43:29.872Z,25.87
2018-12-26T12:46:00.167Z,27.57
2018-12-26T12:48:29.564Z,21.87
2018-12-26T12:50:58.705Z,22.23
2018-12-26T12:53:28.233Z,24.60
2018-12-26T12:55:58.489Z,16.03
2018-12-26T12:58:27.715Z,20.93
2018-12-26T13:00:57.201Z,20.30
2018-12-26T13:03:27.496Z,20.93
2018-12-26T13:05:56.927Z,19.57
2018-12-26T13:08:26.132Z,18.83
2018-12-26T13:11:10.363Z,18.43
2018-12-26T13:13:40.630Z,23.83
2018-12-26T13:16:10.154Z,13.57
2018-12-26T13:18:39.598Z,18.13
2018-12-26T13:21:10.004Z,22.77
2018-12-26T13:23:41.979Z,24.53
2018-12-26T13:26:11.410Z,19.87
2018-12-26T13:28:40.601Z,19.73
2018-12-26T13:31:10.059Z,19.87
2018-12-26T13:33:40.330Z,15.63
2018-12-26T13:36:09.839Z,15.57
2018-12-26T13:38:46.716Z,22.53
2018-12-26T13:41:20.857Z,15.87
2018-12-26T13:43:56.781Z,13.63
2018-12-26T13:46:33.769Z,17.73
2018-12-26T13:48:58.246Z,18.63
2018-12-26T13:51:33.531Z,18.07
2018-12-26T13:54:02.986Z,22.03
2018-12-26T13:56:32.130Z,25.50
2018-12-26T13:59:04.165Z,18.00
2018-12-26T14:01:39.891Z,16.53
2018-12-26T14:04:11.289Z,15.73
2018-12-26T14:06:44.115Z,17.40
2018-12-26T14:09:22.967Z,17.37
2018-12-26T14:11:55.001Z,19.20
2018-12-26T14:14:27.297Z,13.30
2018-12-26T14:16:57.697Z,23.27
2018-12-26T14:19:27.127Z,21.40
2018-12-26T14:21:59.086Z,19.47
2018-12-26T14:24:28.286Z,24.87
2018-12-26T14:26:57.687Z,18.50
2018-12-26T14:29:28.010Z,26.53
2018-12-26T14:31:59.207Z,20.80
2018-12-26T14:34:28.661Z,23.87
2018-12-26T14:36:57.825Z,19.53
2018-12-26T14:39:27.311Z,23.43
2018-12-26T14:41:56.783Z,18.63
2018-12-26T14:44:26.007Z,18.20
2018-12-26T14:47:03.203Z,24.60
2018-12-26T14:49:55.330Z,19.53
2018-12-26T14:52:25.929Z,28.97
2018-12-26T14:54:56.247Z,19.83
2018-12-26T14:57:25.401Z,23.63
2018-12-26T14:59:54.938Z,22.10
2018-12-26T15:02:24.432Z,21.90
2018-12-26T15:04:55.983Z,31.77
2018-12-26T15:07:25.530Z,18.50
2018-12-26T15:09:55.751Z,21.47
2018-12-26T15:12:26.062Z,17.87
2018-12-26T15:14:57.250Z,18.13
2018-12-26T15:17:26.710Z,19.07
2018-12-26T15:19:55.892Z,22.33
2018-12-26T15:22:28.222Z,17.30
2018-12-26T15:24:57.684Z,18.40
2018-12-26T15:27:26.840Z,20.83
2018-12-26T15:29:56.539Z,23.33
2018-12-26T15:32:25.800Z,21.83
2018-12-26T15:34:56.106Z,20.63
2018-12-26T15:37:25.298Z,23.90
2018-12-26T15:39:55.534Z,23.20
2018-12-26T15:42:26.706Z,20.63
2018-12-26T15:44:56.227Z,24.40
2018-12-26T15:47:25.759Z,19.70
2018-12-26T15:49:55.199Z,24.60
2018-12-26T15:52:25.110Z,24.30
2018-12-26T15:54:56.259Z,15.77
2018-12-26T15:57:25.405Z,15.50
2018-12-26T15:59:55.157Z,14.27
2018-12-26T16:02:25.598Z,16.50
2018-12-26T16:04:54.818Z,21.10
2018-12-26T16:07:25.052Z,18.87
2018-12-26T16:09:54.647Z,20.17
2018-12-26T16:12:24.857Z,20.00
2018-12-26T16:14:58.961Z,18.30
2018-12-26T16:17:29.175Z,31.20
2018-12-26T16:19:58.329Z,18.30
2018-12-26T16:22:27.857Z,18.90
2018-12-26T16:24:57.276Z,15.97
2018-12-26T16:27:26.429Z,20.23
2018-12-26T16:29:55.929Z,16.00
2018-12-26T16:32:25.382Z,17.43
2018-12-26T16:34:54.611Z,23.20
2018-12-26T16:37:24.038Z,21.87
2018-12-26T16:39:53.187Z,16.60
2018-12-26T16:42:25.913Z,30.87
2018-12-26T16:44:56.230Z,32.47
2018-12-26T16:47:25.704Z,34.13
2018-12-26T16:49:54.862Z,18.87
2018-12-26T16:52:24.342Z,22.57
2018-12-26T16:54:53.848Z,23.50
2018-12-26T16:57:23.324Z,19.77
2018-12-26T16:59:52.519Z,21.43
2018-12-26T17:02:22.726Z,14.40
2018-12-26T17:04:52.296Z,19.30
2018-12-26T17:07:21.788Z,17.90
2018-12-26T17:09:51.242Z,19.67
2018-12-26T17:12:20.404Z,24.20
2018-12-26T17:14:49.883Z,15.50
2018-12-26T17:17:19.359Z,14.23
2018-12-26T17:19:49.686Z,17.77
2018-12-26T17:22:18.872Z,19.63
2018-12-26T17:24:48.317Z,22.30
2018-12-26T17:27:17.778Z,18.30
2018-12-26T17:29:47.700Z,19.10
2018-12-26T17:32:16.854Z,18.70
2018-12-26T17:34:46.303Z,16.13
2018-12-26T17:37:15.496Z,24.23
2018-12-26T17:39:44.907Z,16.60
2018-12-26T17:42:14.070Z,19.47
2018-12-26T17:44:43.554Z,21.10
2018-12-26T17:47:13.076Z,19.80
2018-12-26T17:49:42.515Z,18.70
2018-12-26T17:52:12.883Z,20.10
2018-12-26T17:54:45.179Z,21.57
2018-12-26T17:57:14.327Z,14.43
2018-12-26T17:59:46.589Z,18.33
2018-12-26T18:02:18.847Z,21.53
2018-12-26T18:04:48.151Z,13.70
2018-12-26T18:07:17.338Z,15.70
2018-12-26T18:09:46.755Z,23.63
2018-12-26T18:12:15.908Z,19.90
2018-12-26T18:14:45.759Z,20.43
2018-12-26T18:17:14.921Z,13.13
2018-12-26T18:19:44.364Z,20.67
2018-12-26T18:22:13.912Z,15.37
2018-12-26T18:24:43.368Z,20.53
2018-12-26T18:27:13.723Z,16.77
2018-12-26T18:29:43.233Z,12.67
2018-12-26T18:32:12.707Z,14.53
2018-12-26T18:34:41.862Z,15.17
2018-12-26T18:37:11.427Z,17.43
2018-12-26T18:39:40.820Z,25.50
2018-12-26T18:42:09.965Z,12.50
2018-12-26T18:44:39.551Z,16.83
2018-12-26T18:47:08.913Z,17.20
2018-12-26T18:49:38.418Z,15.47
2018-12-26T18:52:07.812Z,19.97
2018-12-26T18:54:37.013Z,16.43
2018-12-26T18:57:06.178Z,15.53
2018-12-26T18:59:35.662Z,18.90
2018-12-26T19:02:05.217Z,17.33
2018-12-26T19:04:34.664Z,15.57
2018-12-26T19:07:03.859Z,13.03
2018-12-26T19:09:33.243Z,13.17
2018-12-26T19:12:02.402Z,12.40
2018-12-26T19:14:32.259Z,14.50
2018-12-26T19:17:01.402Z,15.23
2018-12-26T19:19:30.852Z,15.20
2018-12-26T19:22:01.220Z,15.47
2018-12-26T19:24:30.749Z,12.97
2018-12-26T19:27:00.182Z,17.93
2018-12-26T19:29:29.371Z,27.00
2018-12-26T19:31:58.792Z,18.20
2018-12-26T19:34:27.951Z,12.37
2018-12-26T19:36:57.462Z,12.87
2018-12-26T19:39:26.956Z,14.40
2018-12-26T19:41:56.115Z,18.67
2018-12-26T19:44:25.645Z,18.43
2018-12-26T19:46:55.011Z,15.50
2018-12-26T19:49:24.513Z,18.60
2018-12-26T19:51:53.701Z,16.77
2018-12-26T19:54:23.581Z,11.20
2018-12-26T19:56:53.029Z,14.40
2018-12-26T19:59:22.216Z,18.20
2018-12-26T20:01:51.616Z,13.87
2018-12-26T20:04:20.766Z,18.07
2018-12-26T20:06:50.268Z,16.53
2018-12-26T20:09:20.555Z,16.93
2018-12-26T20:11:49.707Z,19.47
2018-12-26T20:14:19.575Z,21.50
2018-12-26T20:16:49.123Z,15.90
2018-12-26T20:19:18.576Z,20.80
2018-12-26T20:21:47.775Z,13.87
2018-12-26T20:24:17.187Z,15.20
2018-12-26T20:26:46.334Z,13.23
2018-12-26T20:29:15.807Z,15.57
2018-12-26T20:31:45.319Z,15.13
2018-12-26T20:34:14.788Z,20.83
2018-12-26T20:36:43.977Z,20.43
2018-12-26T20:39:13.475Z,16.27
2018-12-26T20:41:42.885Z,16.30
2018-12-26T20:44:12.406Z,16.87
2018-12-26T20:46:41.572Z,19.17
2018-12-26T20:49:11.002Z,19.37
2018-12-26T20:51:40.539Z,11.90
2018-12-26T20:54:09.998Z,16.33
2018-12-26T20:56:39.155Z,16.97
2018-12-26T20:59:08.719Z,15.53
2018-12-26T21:01:38.178Z,20.83
2018-12-26T21:04:07.610Z,19.63
2018-12-26T21:06:36.809Z,19.63
2018-12-26T21:09:06.948Z,21.07
2018-12-26T21:11:36.132Z,22.70
2018-12-26T21:14:05.646Z,16.10
2018-12-26T21:16:34.789Z,18.63
2018-12-26T21:19:04.299Z,20.30
2018-12-26T21:21:33.785Z,15.07
2018-12-26T21:24:03.259Z,22.53
2018-12-26T21:26:32.491Z,23.13
2018-12-26T21:29:02.769Z,25.47
2018-12-26T21:31:34.074Z,30.43
2018-12-26T21:34:03.454Z,26.30
2018-12-26T21:36:32.872Z,25.53
2018-12-26T21:39:02.335Z,26.07
2018-12-26T21:41:31.481Z,26.70
2018-12-26T21:44:00.929Z,23.43
2018-12-26T21:46:30.091Z,23.43
2018-12-26T21:49:05.409Z,23.50
2018-12-26T21:51:34.806Z,22.20
2018-12-26T21:54:05.097Z,35.23
2018-12-26T21:56:35.419Z,37.73
2018-12-26T21:59:04.678Z,28.83
2018-12-26T22:01:34.022Z,35.87
2018-12-26T22:04:03.183Z,33.03
2018-12-26T22:06:32.667Z,26.67
2018-12-26T22:09:02.121Z,30.37
2018-12-26T22:11:31.283Z,29.57
2018-12-26T22:14:01.150Z,37.20
2018-12-26T22:16:30.315Z,33.53
2018-12-26T22:18:59.831Z,30.03
2018-12-26T22:21:29.282Z,34.87
2018-12-26T22:23:58.769Z,33.73
2018-12-26T22:26:29.087Z,35.23
2018-12-26T22:28:59.507Z,30.40
2018-12-26T22:31:28.913Z,35.17
2018-12-26T22:33:58.074Z,38.80
2018-12-26T22:36:27.920Z,35.27
2018-12-26T22:38:57.072Z,84.87
2018-12-26T22:41:26.519Z,81.07
2018-12-26T22:43:55.714Z,59.33
2018-12-26T22:46:25.939Z,49.10
2018-12-26T22:48:57.142Z,39.40
2018-12-26T22:51:26.835Z,40.47
2018-12-26T22:53:56.095Z,42.47
2018-12-26T22:56:25.426Z,39.57
2018-12-26T22:58:54.735Z,38.97
2018-12-26T23:01:24.260Z,37.13
2018-12-26T23:03:53.701Z,40.60
2018-12-26T23:06:25.268Z,43.27
2018-12-26T23:08:54.762Z,42.73
2018-12-26T23:11:25.092Z,42.43
2018-12-26T23:13:56.676Z,38.33
2018-12-26T23:16:25.838Z,38.03
2018-12-26T23:18:55.285Z,42.13
2018-12-26T23:21:24.786Z,38.50
2018-12-26T23:23:54.323Z,38.77
2018-12-26T23:26:23.751Z,36.47
2018-12-26T23:28:52.947Z,48.73
2018-12-26T23:31:22.369Z,38.13
2018-12-26T23:33:51.528Z,39.00
2018-12-26T23:36:21.375Z,44.60
2018-12-26T23:38:50.901Z,32.03
2018-12-26T23:41:20.059Z,43.37
2018-12-26T23:43:49.895Z,45.20
2018-12-26T23:46:19.040Z,41.83
2018-12-26T23:48:49.351Z,37.67
2018-12-26T23:51:18.856Z,33.87
2018-12-26T23:53:48.313Z,37.33
2018-12-26T23:56:17.469Z,43.63
2018-12-26T23:58:47.742Z,42.57
